Time;durP1;ratioP1;P1;durP2;ratioP2;P2;SDS_P1;SDS_P2;PMS_P1;PMS_P2;Temp;Humidity;BMP_temperature;BMP_pressure;BME280_temperature;BME280_humidity;BME280_pressure;Samples;Min_cycle;Max_cycle;Signal;HPM_P1;HPM_P2
2023/07/30 00:00:57;;;;;;;666.00;614.20;;;15.20;82.20;;;;;;6190414;23;20047;-89
2023/07/30 00:03:23;;;;;;;600.75;556.30;;;15.20;82.40;;;;;;6189261;23;20091;-90
2023/07/30 00:05:55;;;;;;;638.38;590.20;;;15.30;82.30;;;;;;6190780;23;20020;-89
2023/07/30 00:08:22;;;;;;;609.85;563.25;;;15.30;82.40;;;;;;6206895;23;20017;-89
2023/07/30 00:10:48;;;;;;;603.20;556.78;;;15.30;82.50;;;;;;6188930;23;20335;-89
2023/07/30 00:13:14;;;;;;;639.55;590.05;;;15.20;82.60;;;;;;6210784;23;20031;-89
2023/07/30 00:15:40;;;;;;;590.85;546.35;;;15.20;82.80;;;;;;6187405;23;20016;-89
2023/07/30 00:18:06;;;;;;;611.35;564.60;;;15.30;82.70;;;;;;6177681;23;20024;-89
2023/07/30 00:20:33;;;;;;;547.53;504.65;;;15.20;82.80;;;;;;6187623;23;20442;-90
2023/07/30 00:22:59;;;;;;;601.72;556.95;;;15.20;82.70;;;;;;6214785;23;20022;-89
2023/07/30 00:25:25;;;;;;;602.92;557.63;;;15.20;82.80;;;;;;6190545;23;20391;-90
2023/07/30 00:27:51;;;;;;;611.10;565.15;;;15.20;82.80;;;;;;6181551;23;20025;-89
2023/07/30 00:30:17;;;;;;;611.88;566.00;;;15.10;82.70;;;;;;6192298;23;20102;-90
2023/07/30 00:32:43;;;;;;;596.70;551.67;;;15.10;82.80;;;;;;6215949;23;20446;-89
2023/07/30 00:35:10;;;;;;;643.75;595.08;;;15.00;82.80;;;;;;6192685;23;20382;-89
2023/07/30 00:37:36;;;;;;;637.60;588.10;;;15.00;82.90;;;;;;6184913;23;20095;-89
2023/07/30 00:40:03;;;;;;;623.70;576.08;;;15.00;82.90;;;;;;6192841;23;20072;-89
2023/07/30 00:42:29;;;;;;;626.55;579.17;;;15.00;83.00;;;;;;6179780;23;20078;-90
2023/07/30 00:44:55;;;;;;;603.22;556.95;;;15.00;83.00;;;;;;6192185;23;20403;-89
2023/07/30 00:47:22;;;;;;;534.38;492.13;;;15.00;83.00;;;;;;6208301;23;20020;-89
2023/07/30 00:49:48;;;;;;;586.22;540.72;;;15.00;83.20;;;;;;6192413;23;20020;-89
2023/07/30 00:52:16;;;;;;;595.92;550.42;;;15.00;83.20;;;;;;6216374;23;20023;-89
2023/07/30 00:54:46;;;;;;;604.38;558.00;;;15.00;83.20;;;;;;6217409;23;20050;-89
2023/07/30 00:57:12;;;;;;;625.28;577.67;;;15.00;83.30;;;;;;6183597;23;20447;-89
2023/07/30 00:59:38;;;;;;;613.85;566.25;;;15.00;83.30;;;;;;6192158;23;20023;-90
2023/07/30 01:02:04;;;;;;;635.85;586.92;;;15.00;83.50;;;;;;6191441;23;20020;-89
2023/07/30 01:04:30;;;;;;;650.88;599.75;;;15.00;83.40;;;;;;6192435;23;20058;-89
2023/07/30 01:06:56;;;;;;;629.67;579.40;;;15.00;83.50;;;;;;6184423;23;20024;-89
2023/07/30 01:09:23;;;;;;;585.15;538.85;;;15.00;83.60;;;;;;6190745;23;20024;-89
2023/07/30 01:11:49;;;;;;;549.60;507.13;;;15.00;83.50;;;;;;6192168;23;20012;-89
2023/07/30 01:14:15;;;;;;;586.90;541.78;;;15.00;83.70;;;;;;6216091;23;20379;-89
2023/07/30 01:16:41;;;;;;;618.20;570.33;;;15.00;83.70;;;;;;6236274;23;20008;-90
2023/07/30 01:19:07;;;;;;;634.60;585.85;;;15.00;83.70;;;;;;6188715;23;20020;-90
2023/07/30 01:21:36;;;;;;;617.88;569.67;;;15.00;83.70;;;;;;6192258;23;20516;-89
2023/07/30 01:24:03;;;;;;;553.33;511.17;;;15.00;83.70;;;;;;6190767;23;20043;-89
2023/07/30 01:26:45;;;;;;;611.65;564.83;;;15.00;83.70;;;;;;6187199;23;20019;-90
2023/07/30 01:29:32;;;;;;;602.03;556.13;;;15.00;83.60;;;;;;6215010;23;20036;-90
2023/07/30 01:32:02;;;;;;;488.80;452.13;;;15.00;83.70;;;;;;6191964;23;20020;-90
2023/07/30 01:34:29;;;;;;;479.60;442.35;;;15.00;83.60;;;;;;6215731;23;20027;-89
2023/07/30 01:36:57;;;;;;;614.47;566.03;;;15.00;83.70;;;;;;6184297;23;20118;-89
2023/07/30 01:39:24;;;;;;;535.78;494.83;;;15.00;83.70;;;;;;6216963;23;20047;-90
2023/07/30 01:41:52;;;;;;;564.72;520.22;;;15.00;83.70;;;;;;6167462;23;20061;-89
2023/07/30 01:44:18;;;;;;;640.25;588.90;;;15.00;83.70;;;;;;6190321;23;20451;-90
2023/07/30 01:46:44;;;;;;;588.88;542.90;;;15.00;83.60;;;;;;6209631;23;20019;-90
2023/07/30 01:49:10;;;;;;;598.65;553.30;;;15.00;83.70;;;;;;6189361;23;20023;-89
2023/07/30 01:51:35;;;;;;;581.00;535.80;;;15.00;83.60;;;;;;6216770;23;20018;-89
2023/07/30 01:54:01;;;;;;;573.67;528.92;;;15.00;83.70;;;;;;6215338;23;20024;-89
2023/07/30 01:56:27;;;;;;;605.38;559.17;;;15.00;83.60;;;;;;6162556;23;20089;-90
2023/07/30 01:58:53;;;;;;;579.80;535.00;;;15.10;83.60;;;;;;6186858;23;20019;-89
2023/07/30 02:01:19;;;;;;;583.08;537.78;;;15.00;83.70;;;;;;6167267;23;20012;-89
2023/07/30 02:03:44;;;;;;;588.78;543.67;;;15.10;83.70;;;;;;6190219;23;20027;-90
2023/07/30 02:06:11;;;;;;;536.75;495.00;;;15.10;83.70;;;;;;6215722;23;20027;-90
2023/07/30 02:08:37;;;;;;;574.88;530.60;;;15.10;83.70;;;;;;6208942;23;20043;-90
2023/07/30 02:11:02;;;;;;;583.10;538.10;;;15.20;83.70;;;;;;6216417;23;20443;-90
2023/07/30 02:13:28;;;;;;;580.97;536.65;;;15.20;83.90;;;;;;6190485;23;20074;-90
2023/07/30 02:15:54;;;;;;;568.83;525.40;;;15.20;83.80;;;;;;6215683;23;20043;-90
2023/07/30 02:18:20;;;;;;;603.80;557.13;;;15.20;83.70;;;;;;6206928;23;20020;-90
2023/07/30 02:20:45;;;;;;;509.45;469.63;;;15.20;83.80;;;;;;6216888;23;20069;-90
2023/07/30 02:23:11;;;;;;;559.92;517.33;;;15.30;83.70;;;;;;6164524;23;20384;-90
2023/07/30 02:25:38;;;;;;;501.20;462.05;;;15.30;83.80;;;;;;6192631;23;20024;-90
2023/07/30 02:28:04;;;;;;;500.67;461.92;;;15.30;83.90;;;;;;6181433;23;20070;-89
2023/07/30 02:30:30;;;;;;;573.42;529.15;;;15.30;83.90;;;;;;6216846;23;20020;-89
2023/07/30 02:32:56;;;;;;;584.60;539.42;;;15.30;83.80;;;;;;6190112;23;20146;-89
2023/07/30 02:35:22;;;;;;;581.22;536.15;;;15.30;83.80;;;;;;6216698;23;20016;-89
2023/07/30 02:37:48;;;;;;;608.70;561.53;;;15.30;83.70;;;;;;6208124;23;20016;-89
2023/07/30 02:40:14;;;;;;;628.72;578.38;;;15.30;83.70;;;;;;6192109;23;20339;-89
2023/07/30 02:42:40;;;;;;;589.55;543.65;;;15.30;83.70;;;;;;6189140;23;20022;-89
2023/07/30 02:45:06;;;;;;;579.20;534.80;;;15.30;83.80;;;;;;6166871;23;20020;-89
2023/07/30 02:47:32;;;;;;;567.70;522.53;;;15.30;83.80;;;;;;6206916;23;20019;-90
2023/07/30 02:49:57;;;;;;;584.75;538.47;;;15.30;83.80;;;;;;6191719;23;20012;-90
2023/07/30 02:52:23;;;;;;;560.92;517.58;;;15.30;83.70;;;;;;6214222;23;20020;-89
2023/07/30 02:54:49;;;;;;;562.20;518.17;;;15.20;83.80;;;;;;6216344;23;20020;-90
2023/07/30 02:57:15;;;;;;;555.40;513.25;;;15.20;83.90;;;;;;6158169;23;20013;-90
2023/07/30 02:59:41;;;;;;;553.20;510.75;;;15.20;83.90;;;;;;6216290;23;20026;-90
2023/07/30 03:02:06;;;;;;;570.83;526.67;;;15.10;83.90;;;;;;6189570;23;20023;-89
2023/07/30 03:04:33;;;;;;;571.67;528.17;;;15.10;83.90;;;;;;6191695;23;20020;-89
2023/07/30 03:06:59;;;;;;;572.50;528.17;;;15.00;83.90;;;;;;6183537;23;20020;-90
2023/07/30 03:09:24;;;;;;;553.35;511.15;;;15.00;83.90;;;;;;6214799;23;20160;-89
2023/07/30 03:11:50;;;;;;;562.03;518.60;;;15.00;84.00;;;;;;6190873;23;20039;-90
2023/07/30 03:14:20;;;;;;;559.30;516.78;;;15.00;83.90;;;;;;6177998;23;20051;-90
2023/07/30 03:16:46;;;;;;;552.85;510.40;;;15.00;83.90;;;;;;6184025;23;20689;-90
2023/07/30 03:19:12;;;;;;;537.20;496.63;;;15.00;84.00;;;;;;6189327;23;20020;-89
2023/07/30 03:21:38;;;;;;;481.95;444.75;;;14.90;83.90;;;;;;6216412;23;20023;-89
2023/07/30 03:24:04;;;;;;;562.15;520.15;;;14.90;84.00;;;;;;6189522;23;20056;-90
2023/07/30 03:26:33;;;;;;;541.38;500.02;;;14.90;84.00;;;;;;6162028;23;20023;-90
2023/07/30 03:28:59;;;;;;;579.50;534.92;;;14.90;84.00;;;;;;6186393;23;20024;-90
2023/07/30 03:31:24;;;;;;;545.33;503.05;;;14.90;84.00;;;;;;6191069;23;20439;-89
2023/07/30 03:33:50;;;;;;;617.90;571.40;;;14.90;84.00;;;;;;6214881;23;20012;-89
2023/07/30 03:36:16;;;;;;;572.05;528.47;;;14.90;84.10;;;;;;6214626;23;20027;-90
2023/07/30 03:38:43;;;;;;;557.30;515.42;;;14.80;84.00;;;;;;6185329;23;20142;-89
2023/07/30 03:41:10;;;;;;;566.83;523.90;;;14.80;84.10;;;;;;6191903;23;20070;-90
2023/07/30 03:43:36;;;;;;;561.70;519.33;;;14.80;84.10;;;;;;6190050;23;20117;-89
2023/07/30 03:46:02;;;;;;;460.23;425.75;;;14.80;84.00;;;;;;6216530;23;20043;-89
2023/07/30 03:48:28;;;;;;;486.17;448.65;;;14.80;84.00;;;;;;6181412;23;20020;-91
2023/07/30 03:50:54;;;;;;;528.38;487.63;;;14.80;84.00;;;;;;6191824;23;20023;-91
2023/07/30 03:53:21;;;;;;;586.42;542.60;;;14.80;84.00;;;;;;6188877;23;20054;-89
2023/07/30 03:55:47;;;;;;;543.63;502.63;;;14.70;84.00;;;;;;6191214;23;20058;-91
2023/07/30 03:58:13;;;;;;;565.92;523.17;;;14.70;84.00;;;;;;6181470;23;20016;-90
2023/07/30 04:00:39;;;;;;;540.45;499.10;;;14.70;84.00;;;;;;6191166;23;20024;-91
2023/07/30 04:03:05;;;;;;;571.38;528.50;;;14.70;84.00;;;;;;6159861;23;20061;-92
2023/07/30 04:05:31;;;;;;;562.08;519.83;;;14.70;84.00;;;;;;6193459;23;20415;-90
2023/07/30 04:07:57;;;;;;;536.60;497.35;;;14.70;84.10;;;;;;6182144;23;20390;-90
2023/07/30 04:10:23;;;;;;;543.30;503.50;;;14.60;84.20;;;;;;6218320;23;20017;-90
2023/07/30 04:12:48;;;;;;;528.28;488.85;;;14.60;84.20;;;;;;6191253;23;20380;-89
2023/07/30 04:15:16;;;;;;;514.42;475.73;;;14.60;84.30;;;;;;6193336;23;20055;-90
2023/07/30 04:17:42;;;;;;;553.45;511.95;;;14.70;84.30;;;;;;6183063;23;20048;-89
2023/07/30 04:20:09;;;;;;;580.20;536.17;;;14.60;84.30;;;;;;6193079;23;20012;-91
2023/07/30 04:22:36;;;;;;;522.90;484.75;;;14.60;84.30;;;;;;6190945;23;20016;-90
2023/07/30 04:25:02;;;;;;;455.65;421.73;;;14.70;84.30;;;;;;6193574;23;20535;-90
2023/07/30 04:27:28;;;;;;;548.63;508.10;;;14.70;84.30;;;;;;6182782;23;20012;-90
2023/07/30 04:29:54;;;;;;;532.50;491.98;;;14.70;84.30;;;;;;6218370;23;20024;-90
2023/07/30 04:32:20;;;;;;;601.60;556.67;;;14.70;84.40;;;;;;6190742;23;20016;-90
2023/07/30 04:34:45;;;;;;;604.45;559.03;;;14.70;84.30;;;;;;6218048;23;20031;-90
2023/07/30 04:37:11;;;;;;;595.45;549.85;;;14.80;84.30;;;;;;6210988;23;20012;-91
2023/07/30 04:39:37;;;;;;;618.90;573.40;;;14.80;84.50;;;;;;6187304;23;20020;-89
2023/07/30 04:42:04;;;;;;;590.10;545.60;;;14.80;84.50;;;;;;6189711;23;20020;-89
2023/07/30 04:44:30;;;;;;;610.25;563.28;;;14.90;84.40;;;;;;6192596;23;20055;-90
2023/07/30 04:46:55;;;;;;;567.75;524.10;;;14.90;84.40;;;;;;6185381;23;20020;-90
2023/07/30 04:49:21;;;;;;;609.05;562.90;;;15.00;84.40;;;;;;6203266;23;20103;-90
2023/07/30 04:51:47;;;;;;;591.60;546.40;;;15.00;84.30;;;;;;6217847;23;20085;-90
2023/07/30 04:54:13;;;;;;;561.30;518.53;;;15.00;84.30;;;;;;6202352;23;20020;-90
2023/07/30 04:56:39;;;;;;;576.83;532.95;;;15.00;84.30;;;;;;6186657;23;20132;-90
2023/07/30 04:59:05;;;;;;;553.80;510.50;;;15.00;84.20;;;;;;6188845;23;20016;-90
2023/07/30 05:01:31;;;;;;;612.28;564.42;;;15.10;84.10;;;;;;6192522;23;20069;-90
2023/07/30 05:03:57;;;;;;;595.15;550.45;;;15.20;84.10;;;;;;6190813;23;20016;-90
2023/07/30 05:06:23;;;;;;;604.72;559.28;;;15.20;83.90;;;;;;6189396;23;20016;-90
2023/07/30 05:08:48;;;;;;;621.38;573.05;;;15.20;83.90;;;;;;6186574;23;20020;-90
2023/07/30 05:11:17;;;;;;;609.65;563.95;;;15.20;83.90;;;;;;6193079;23;20075;-90
2023/07/30 05:13:43;;;;;;;605.50;560.80;;;15.30;83.90;;;;;;6190232;23;20024;-90
2023/07/30 05:16:09;;;;;;;629.55;581.08;;;15.30;83.70;;;;;;6166637;23;20160;-90
2023/07/30 05:18:34;;;;;;;513.53;474.40;;;15.30;83.60;;;;;;6208809;23;20024;-89
2023/07/30 05:21:00;;;;;;;634.17;586.00;;;15.30;83.10;;;;;;6192645;23;20077;-89
2023/07/30 05:23:26;;;;;;;614.63;568.33;;;15.30;83.00;;;;;;6190519;23;20027;-90
2023/07/30 05:25:51;;;;;;;644.78;594.40;;;15.40;82.60;;;;;;6217282;23;20082;-90
2023/07/30 05:28:17;;;;;;;622.38;576.05;;;15.40;82.50;;;;;;6182309;23;20020;-90
2023/07/30 05:30:44;;;;;;;608.58;563.38;;;15.50;82.40;;;;;;6217315;23;20024;-90
2023/07/30 05:33:10;;;;;;;583.50;540.05;;;15.50;82.10;;;;;;6215323;23;20088;-90
2023/07/30 05:35:35;;;;;;;617.92;572.08;;;15.60;81.70;;;;;;6217307;23;20418;-90
2023/07/30 05:38:01;;;;;;;598.45;554.15;;;15.60;81.50;;;;;;6209843;23;20107;-90
2023/07/30 05:40:29;;;;;;;630.28;583.53;;;15.60;81.30;;;;;;6213444;23;20031;-90
2023/07/30 05:42:55;;;;;;;614.92;568.88;;;15.80;81.40;;;;;;6188235;23;20012;-90
2023/07/30 05:45:21;;;;;;;585.97;541.67;;;15.80;81.00;;;;;;6189726;23;20027;-89
2023/07/30 05:47:46;;;;;;;604.60;559.45;;;15.80;81.00;;;;;;6206835;23;20024;-90
2023/07/30 05:50:12;;;;;;;594.92;549.88;;;15.80;81.00;;;;;;6216616;23;20435;-89
2023/07/30 05:52:38;;;;;;;629.10;580.63;;;15.90;81.00;;;;;;6215637;23;20024;-90
2023/07/30 05:55:04;;;;;;;644.13;595.00;;;15.90;81.00;;;;;;6217030;23;20012;-90
2023/07/30 05:57:30;;;;;;;585.47;540.38;;;16.00;80.90;;;;;;6206128;23;20035;-89
2023/07/30 05:59:56;;;;;;;619.28;571.70;;;16.00;80.70;;;;;;6191415;23;20020;-89
2023/07/30 06:02:22;;;;;;;579.58;535.17;;;16.00;80.60;;;;;;6214965;23;20019;-90
2023/07/30 06:04:48;;;;;;;658.38;606.80;;;16.00;80.60;;;;;;6216513;23;20016;-90
2023/07/30 06:07:14;;;;;;;636.10;587.40;;;16.00;80.50;;;;;;6206580;23;20454;-90
2023/07/30 06:09:40;;;;;;;650.72;599.85;;;16.00;80.60;;;;;;6216297;23;20091;-89
2023/07/30 06:12:06;;;;;;;534.92;495.80;;;16.00;80.50;;;;;;6189388;23;20316;-90
2023/07/30 06:14:32;;;;;;;442.83;412.63;;;16.00;80.40;;;;;;6191238;23;20073;-89
2023/07/30 06:16:57;;;;;;;430.35;400.15;;;16.10;80.30;;;;;;6183088;23;20048;-89
2023/07/30 06:19:23;;;;;;;445.92;414.67;;;16.10;80.20;;;;;;6188966;23;20442;-90
2023/07/30 06:21:49;;;;;;;461.05;427.45;;;16.10;80.20;;;;;;6216381;23;20016;-90
2023/07/30 06:24:15;;;;;;;466.88;433.92;;;16.10;80.00;;;;;;6213819;23;20024;-90
2023/07/30 06:26:41;;;;;;;430.27;400.60;;;16.20;80.10;;;;;;6184695;23;20019;-90
2023/07/30 06:29:06;;;;;;;435.52;405.25;;;16.30;80.10;;;;;;6212378;23;20103;-89
2023/07/30 06:31:32;;;;;;;484.08;448.63;;;16.40;80.30;;;;;;6216124;23;20043;-90
2023/07/30 06:33:58;;;;;;;477.10;442.92;;;16.40;79.70;;;;;;6189496;23;20020;-90
2023/07/30 06:36:24;;;;;;;466.00;431.83;;;16.40;79.40;;;;;;6211520;23;20020;-91
2023/07/30 06:38:50;;;;;;;464.00;430.27;;;16.40;79.30;;;;;;6212232;23;20016;-90
2023/07/30 06:41:16;;;;;;;445.02;412.13;;;16.40;78.90;;;;;;6191253;23;20021;-90
2023/07/30 06:43:41;;;;;;;484.55;448.90;;;16.40;78.30;;;;;;6212985;23;20056;-90
2023/07/30 06:46:10;;;;;;;493.60;456.65;;;16.40;78.10;;;;;;6190064;23;20409;-91
2023/07/30 06:48:35;;;;;;;497.02;459.70;;;16.40;77.80;;;;;;6183571;23;20016;-89
2023/07/30 06:51:01;;;;;;;492.80;455.58;;;16.40;77.40;;;;;;6190035;23;20064;-90
2023/07/30 06:53:27;;;;;;;496.60;459.20;;;16.40;77.50;;;;;;6165035;23;20095;-89
2023/07/30 06:55:53;;;;;;;508.15;469.02;;;16.40;77.50;;;;;;6215382;23;20435;-90
2023/07/30 06:58:18;;;;;;;505.55;468.05;;;16.40;77.30;;;;;;6181904;23;20031;-90
2023/07/30 07:00:44;;;;;;;519.17;479.95;;;16.40;77.30;;;;;;6190395;23;20020;-91
2023/07/30 07:03:10;;;;;;;526.35;484.67;;;16.40;77.20;;;;;;6189693;23;20016;-89
2023/07/30 07:05:38;;;;;;;565.70;521.05;;;16.40;76.80;;;;;;6215802;23;20091;-93
2023/07/30 07:08:04;;;;;;;443.40;412.48;;;16.40;76.30;;;;;;6167882;23;20036;-89
2023/07/30 07:10:33;;;;;;;609.88;561.88;;;16.50;75.80;;;;;;6178128;23;20451;-91
2023/07/30 07:13:01;;;;;;;628.05;577.97;;;16.60;75.50;;;;;;6211342;23;20019;-90
2023/07/30 07:15:27;;;;;;;587.78;540.85;;;16.70;75.40;;;;;;6190732;23;20020;-89
2023/07/30 07:17:53;;;;;;;627.72;577.03;;;16.80;75.50;;;;;;6180703;23;20023;-90
2023/07/30 07:20:19;;;;;;;634.17;582.10;;;16.90;75.30;;;;;;6190065;23;20024;-89
2023/07/30 07:22:45;;;;;;;637.33;585.70;;;17.00;74.80;;;;;;6176848;23;20390;-91
2023/07/30 07:25:11;;;;;;;663.83;608.90;;;17.00;74.90;;;;;;6190681;23;20047;-94
2023/07/30 07:27:39;;;;;;;429.17;399.48;;;17.20;74.30;;;;;;6166699;23;20020;-89
2023/07/30 07:30:05;;;;;;;668.80;612.83;;;17.20;73.70;;;;;;6190664;23;20020;-91
2023/07/30 07:32:38;;;;;;;677.13;618.97;;;17.30;74.10;;;;;;6188409;23;20482;-92
2023/07/30 07:35:05;;;;;;;720.45;659.17;;;17.40;73.70;;;;;;6190838;23;20081;-91
2023/07/30 07:37:32;;;;;;;715.80;651.90;;;17.50;72.60;;;;;;6183328;23;20012;-89
2023/07/30 07:40:09;;;;;;;734.22;670.33;;;17.60;71.60;;;;;;6193174;23;20048;-92
2023/07/30 07:42:42;;;;;;;715.38;652.85;;;17.60;70.40;;;;;;6165644;23;20016;-91
2023/07/30 07:45:10;;;;;;;676.33;616.33;;;17.60;71.40;;;;;;6192422;23;20462;-91
2023/07/30 07:47:36;;;;;;;662.85;605.45;;;17.50;70.60;;;;;;6191782;23;20028;-91
2023/07/30 07:50:06;;;;;;;642.22;585.05;;;17.50;70.50;;;;;;6193181;23;20016;-91
2023/07/30 07:52:32;;;;;;;623.13;569.08;;;17.50;69.80;;;;;;6188403;23;20016;-90
2023/07/30 07:54:58;;;;;;;627.72;572.78;;;17.50;70.30;;;;;;6192604;23;20476;-90
2023/07/30 07:57:23;;;;;;;636.05;580.83;;;17.50;70.30;;;;;;6181504;23;20051;-90
2023/07/30 07:59:49;;;;;;;631.90;577.58;;;17.50;70.20;;;;;;6193439;23;20019;-89
2023/07/30 08:02:15;;;;;;;600.38;548.17;;;17.50;70.50;;;;;;6190644;23;20020;-93
2023/07/30 08:04:57;;;;;;;584.75;533.80;;;17.40;69.10;;;;;;6194075;23;20016;-92
2023/07/30 08:07:39;;;;;;;559.58;513.05;;;17.40;68.30;;;;;;6188353;23;20479;-94
2023/07/30 08:10:08;;;;;;;569.35;520.92;;;17.40;68.70;;;;;;6176739;23;20056;-92
2023/07/30 08:12:34;;;;;;;543.38;497.83;;;17.40;68.50;;;;;;6189100;23;20072;-92
2023/07/30 08:15:03;;;;;;;548.70;504.02;;;17.40;69.20;;;;;;6174511;23;20012;-91
2023/07/30 08:17:29;;;;;;;542.63;498.38;;;17.40;69.30;;;;;;6182803;23;20501;-90
2023/07/30 08:19:55;;;;;;;578.67;530.65;;;17.40;69.50;;;;;;6192878;23;20016;-90
2023/07/30 08:22:21;;;;;;;610.10;558.60;;;17.50;69.60;;;;;;6175431;23;20027;-89
2023/07/30 08:24:46;;;;;;;583.28;534.97;;;17.50;69.80;;;;;;6243494;23;20457;-91
2023/07/30 08:27:15;;;;;;;607.35;556.63;;;17.50;69.50;;;;;;6182158;23;20019;-90
2023/07/30 08:29:41;;;;;;;613.53;560.83;;;17.50;69.90;;;;;;6192881;23;20024;-89
2023/07/30 08:32:07;;;;;;;574.97;528.25;;;17.50;69.60;;;;;;6190384;23;20020;-91
2023/07/30 08:34:33;;;;;;;592.58;543.50;;;17.50;69.50;;;;;;6193923;23;20048;-89
2023/07/30 08:37:01;;;;;;;581.70;534.05;;;17.50;69.60;;;;;;6210835;23;20028;-91
2023/07/30 08:39:27;;;;;;;521.85;480.17;;;17.50;69.30;;;;;;6192296;23;20073;-89
2023/07/30 08:41:53;;;;;;;526.65;484.58;;;17.50;69.00;;;;;;6193016;23;20405;-90
2023/07/30 08:44:18;;;;;;;514.08;472.50;;;17.50;69.00;;;;;;6217122;23;20459;-89
2023/07/30 08:46:44;;;;;;;562.25;517.15;;;17.50;69.20;;;;;;6210472;23;20107;-89
2023/07/30 08:49:10;;;;;;;584.85;536.58;;;17.50;69.40;;;;;;6189391;23;20016;-88
2023/07/30 08:51:39;;;;;;;581.80;533.58;;;17.50;69.50;;;;;;6192644;23;20074;-90
2023/07/30 08:54:06;;;;;;;572.42;525.45;;;17.60;69.60;;;;;;6176042;23;20024;-90
2023/07/30 08:56:32;;;;;;;613.90;562.63;;;17.70;69.70;;;;;;6187116;23;20027;-91
2023/07/30 08:59:00;;;;;;;605.47;556.72;;;17.80;69.70;;;;;;6174140;23;20087;-90
2023/07/30 09:01:32;;;;;;;597.92;548.42;;;17.90;68.80;;;;;;6193057;23;20020;-88
2023/07/30 09:04:06;;;;;;;604.03;554.67;;;17.80;68.20;;;;;;6216083;23;20024;-91
2023/07/30 09:06:42;;;;;;;595.35;547.55;;;17.80;68.90;;;;;;6188198;23;20077;-90
2023/07/30 09:09:16;;;;;;;697.28;636.75;;;17.80;68.70;;;;;;6170682;23;20447;-91
2023/07/30 09:12:00;;;;;;;;;;;;;;;;;;;;;
2023/07/30 09:14:26;;;;;;;506.13;466.50;;;17.60;68.40;;;;;;6176901;23;20024;-89
2023/07/30 09:17:03;;;;;;;602.75;553.60;;;17.40;68.90;;;;;;6209779;23;20034;-92
2023/07/30 09:19:35;;;;;;;591.13;543.67;;;17.20;69.40;;;;;;6201849;23;20032;-89
2023/07/30 09:22:05;;;;;;;581.63;534.78;;;17.00;70.00;;;;;;6216768;23;20022;-89
2023/07/30 09:24:31;;;;;;;572.50;525.63;;;17.00;70.30;;;;;;6190825;23;20027;-89
2023/07/30 09:27:10;;;;;;;622.30;571.75;;;16.90;70.70;;;;;;6184168;23;20016;-89
2023/07/30 09:29:36;;;;;;;590.80;544.25;;;16.80;70.90;;;;;;6215998;23;20083;-89
2023/07/30 09:32:09;;;;;;;619.85;569.15;;;16.80;70.90;;;;;;6192346;23;20055;-91
2023/07/30 09:34:35;;;;;;;549.67;505.70;;;16.70;70.70;;;;;;6216319;23;20087;-90
2023/07/30 09:37:02;;;;;;;581.75;535.05;;;16.60;71.10;;;;;;6210188;23;20905;-89
2023/07/30 09:39:28;;;;;;;684.90;624.97;;;16.60;71.20;;;;;;6192103;23;20431;-89
2023/07/30 09:42:00;;;;;;;660.75;604.33;;;16.70;71.90;;;;;;6191865;23;20027;-89
2023/07/30 09:44:27;;;;;;;661.30;605.00;;;16.70;71.60;;;;;;6191073;23;20016;-90
2023/07/30 09:46:53;;;;;;;676.53;619.22;;;16.80;71.60;;;;;;6184612;23;20705;-89
2023/07/30 09:49:18;;;;;;;731.22;664.75;;;16.80;71.60;;;;;;6190637;23;20023;-89
2023/07/30 09:51:47;;;;;;;719.78;656.78;;;16.90;72.10;;;;;;6217620;23;20151;-89
2023/07/30 09:54:14;;;;;;;749.42;679.95;;;16.90;71.90;;;;;;6215171;23;20362;-91
2023/07/30 09:56:41;;;;;;;696.90;634.75;;;17.00;71.50;;;;;;6185539;23;20055;-89
2023/07/30 09:59:08;;;;;;;711.35;645.72;;;17.00;71.50;;;;;;6213290;23;20024;-90
2023/07/30 10:01:46;;;;;;;700.58;639.13;;;17.00;71.60;;;;;;6192391;23;20020;-89
2023/07/30 10:04:12;;;;;;;384.05;356.63;;;17.00;71.90;;;;;;6190161;23;20463;-89
2023/07/30 10:06:44;;;;;;;783.70;709.35;;;17.20;72.00;;;;;;6186139;23;20022;-89
2023/07/30 10:09:12;;;;;;;749.35;680.65;;;17.30;72.50;;;;;;6189064;23;20385;-89
2023/07/30 10:11:42;;;;;;;794.47;712.88;;;17.40;72.30;;;;;;6192523;23;20098;-90
2023/07/30 10:14:08;;;;;;;391.77;364.60;;;17.50;72.20;;;;;;6189228;23;20024;-89
2023/07/30 10:16:34;;;;;;;792.58;715.00;;;17.50;72.10;;;;;;6186593;23;20673;-89
2023/07/30 10:19:00;;;;;;;795.38;717.60;;;17.60;72.10;;;;;;6187451;23;20016;-89
2023/07/30 10:21:29;;;;;;;813.90;727.08;;;17.80;72.30;;;;;;6217619;23;20400;-92
2023/07/30 10:24:01;;;;;;;805.45;726.75;;;17.80;71.90;;;;;;6173395;23;20024;-89
2023/07/30 10:26:28;;;;;;;764.40;692.63;;;17.80;71.90;;;;;;6187579;23;20012;-90
2023/07/30 10:29:13;;;;;;;793.55;717.90;;;17.70;72.10;;;;;;6186461;23;20086;-89
2023/07/30 10:31:43;;;;;;;750.03;682.15;;;17.60;71.70;;;;;;6217057;23;20103;-89
2023/07/30 10:34:10;;;;;;;799.58;719.85;;;17.60;72.20;;;;;;6179219;23;20028;-90
2023/07/30 10:36:45;;;;;;;641.38;582.53;;;17.70;72.50;;;;;;6185936;23;20054;-89
2023/07/30 10:39:28;;;;;;;806.92;727.67;;;17.90;72.30;;;;;;6190617;23;20039;-90
2023/07/30 10:42:09;;;;;;;750.78;683.15;;;18.00;72.00;;;;;;6191841;23;20069;-89
2023/07/30 10:44:37;;;;;;;;;;;18.00;71.50;;;;;;6153227;23;20031;-91
2023/07/30 10:47:08;;;;;;;623.40;570.92;;;18.20;68.50;;;;;;6182574;23;20012;-88
2023/07/30 10:49:38;;;;;;;707.03;643.83;;;18.40;68.90;;;;;;6191103;23;20016;-89
2023/07/30 10:52:13;;;;;;;717.55;653.25;;;18.60;69.10;;;;;;6190138;23;20071;-91
2023/07/30 10:54:44;;;;;;;636.45;583.17;;;18.70;65.60;;;;;;6191599;23;20322;-90
2023/07/30 10:57:10;;;;;;;605.65;555.60;;;18.70;67.20;;;;;;6207626;23;20398;-89
2023/07/30 10:59:42;;;;;;;660.25;603.50;;;18.70;67.50;;;;;;6190901;23;20058;-95
2023/07/30 11:02:27;;;;;;;624.47;571.17;;;18.70;66.10;;;;;;6189112;23;20101;-94
2023/07/30 11:07:55;;;;;;;599.15;549.63;;;18.80;65.60;;;;;;6189132;23;20343;-95
2023/07/30 11:10:20;;;;;;;626.13;572.97;;;18.80;66.20;;;;;;6186917;23;20012;-89
2023/07/30 11:12:49;;;;;;;582.45;534.83;;;18.80;66.80;;;;;;6161164;23;20087;-91
2023/07/30 11:15:27;;;;;;;528.67;485.23;;;18.90;66.40;;;;;;6189113;23;20095;-91
2023/07/30 11:17:53;;;;;;;593.08;544.15;;;18.90;66.00;;;;;;6177822;23;20043;-91
2023/07/30 11:20:29;;;;;;;618.05;565.42;;;19.00;66.00;;;;;;6216240;23;20019;-90
2023/07/30 11:22:55;;;;;;;662.55;603.17;;;19.10;66.40;;;;;;6189459;23;20017;-90
2023/07/30 11:25:27;;;;;;;657.38;599.17;;;19.20;65.60;;;;;;6215736;23;20012;-93
2023/07/30 11:27:56;;;;;;;618.47;567.00;;;19.20;64.40;;;;;;6180760;23;20083;-92
2023/07/30 11:30:22;;;;;;;661.47;603.80;;;19.20;64.10;;;;;;6214730;23;20020;-90
2023/07/30 11:32:51;;;;;;;631.85;577.22;;;19.20;64.10;;;;;;6198905;23;20016;-93
2023/07/30 11:35:17;;;;;;;621.78;568.28;;;19.10;64.70;;;;;;6191083;23;20012;-90
2023/07/30 11:37:51;;;;;;;648.85;591.60;;;19.10;65.40;;;;;;6187365;23;20016;-89
2023/07/30 11:40:26;;;;;;;634.60;580.03;;;19.20;65.80;;;;;;6192705;23;20016;-90
2023/07/30 11:43:10;;;;;;;656.60;596.88;;;19.30;65.90;;;;;;6179100;23;20038;-92
2023/07/30 11:45:36;;;;;;;649.22;587.80;;;19.30;65.60;;;;;;6188976;23;20027;-89
2023/07/30 11:48:11;;;;;;;554.95;510.75;;;19.30;66.10;;;;;;6204032;23;20354;-89
2023/07/30 11:50:45;;;;;;;507.63;469.38;;;19.30;65.20;;;;;;6186807;23;20024;-90
2023/07/30 11:53:11;;;;;;;612.85;557.80;;;19.40;65.50;;;;;;6185481;23;20102;-89
2023/07/30 11:55:51;;;;;;;716.08;642.67;;;19.30;63.90;;;;;;6187086;23;20647;-92
2023/07/30 11:58:17;;;;;;;739.22;665.30;;;19.30;65.00;;;;;;6161313;23;20024;-90
2023/07/30 12:00:43;;;;;;;737.10;660.17;;;19.20;65.10;;;;;;6161815;23;20024;-89
2023/07/30 12:03:13;;;;;;;516.40;472.73;;;19.00;64.90;;;;;;6189989;23;20036;-89
2023/07/30 12:05:49;;;;;;;739.70;663.30;;;18.90;65.00;;;;;;6186921;23;20012;-91
2023/07/30 12:08:17;;;;;;;721.85;647.92;;;18.80;65.80;;;;;;6178237;23;20028;-91
2023/07/30 12:10:44;;;;;;;707.05;633.78;;;18.70;66.40;;;;;;6187157;23;20023;-89
2023/07/30 12:13:18;;;;;;;724.70;649.67;;;18.90;66.70;;;;;;6185215;23;20024;-89
2023/07/30 12:15:53;;;;;;;723.65;649.20;;;18.90;66.00;;;;;;6186710;23;20499;-89